ADDS METAR Data INFO
IDs: Format: Raw Decoded Include TAF

Data at: 1322 UTC 11 Dec 2017

KLXN 111315Z AUTO 28012KT 10SM CLR 03/M09 A3013 RMK AO2 T00331091
KLXN 111255Z AUTO 28011KT 10SM CLR 02/M09 A3014 RMK AO2 T00231092
KLXN 111235Z AUTO 29009KT 10SM CLR 02/M09 A3014 RMK AO2 T00171095
KLXN 111215Z AUTO 28010KT 10SM CLR 01/M09 A3013 RMK AO2 T00131092
KLXN 111155Z AUTO 29012KT 10SM CLR 02/M10 A3013 RMK AO2 T00161096 10017 21018
KLXN 111135Z AUTO 29013KT 10SM CLR 01/M09 A3013 RMK AO2 T00101095
KLXN 111115Z AUTO 30013KT 10SM CLR 02/M09 A3013 RMK AO2 T00151095
KLXN 111055Z AUTO 30015KT 10SM CLR 01/M09 A3013 RMK AO2 T00121093
KLXN 111035Z AUTO 30012KT 10SM CLR 00/M09 A3013 RMK AO2 T00011090
KLXN 111015Z AUTO 29010KT 10SM CLR M01/M09 A3012 RMK AO2 T10111091
KLXN 110955Z AUTO 30009KT 10SM CLR M01/M09 A3012 RMK AO2 T10121090
KLXN 110935Z AUTO 31008KT 10SM CLR M01/M09 A3012 RMK AO2 T10121092
KLXN 110915Z AUTO 32009KT 10SM CLR M01/M09 A3012 RMK AO2 T10111093
KLXN 110855Z AUTO 31009KT 10SM CLR M01/M09 A3012 RMK AO2 T10111095
KLXN 110835Z AUTO 30009KT 10SM CLR M01/M09 A3012 RMK AO2 T10061095
KLXN 110815Z AUTO 29009KT 10SM CLR M01/M10 A3012 RMK AO2 T10101097
KLXN 110755Z AUTO 29010KT 10SM CLR 00/M10 A3012 RMK AO2 T00001100
KLXN 110735Z AUTO 30010KT 10SM CLR 00/M10 A3013 RMK AO2 T00031099
KLXN 110715Z AUTO 30009KT 10SM CLR M01/M10 A3012 RMK AO2 T10091100
KLXN 110655Z AUTO 30008KT 10SM CLR 00/M10 A3012 RMK AO2 T00041100
KLXN 110635Z AUTO 29010KT 10SM CLR M01/M09 A3013 RMK AO2 T10081095
KLXN 110615Z AUTO 30009KT 10SM CLR M01/M10 A3013 RMK AO2 T10151099
KLXN 110555Z AUTO 30009KT 10SM CLR M02/M10 A3013 RMK AO2 T10171103 10082 21024 401881024
KLXN 110535Z AUTO 30005KT 10SM CLR M02/M11 A3013 RMK AO2 T10211107
KLXN 110515Z AUTO 28004KT 10SM CLR M01/M10 A3014 RMK AO2 T10101105
KLXN 110455Z AUTO 30005KT 10SM CLR M01/M11 A3014 RMK AO2 T10141107
KLXN 110435Z AUTO 30008KT 10SM CLR M01/M11 A3014 RMK AO2 T10111106
KLXN 110415Z AUTO 29009KT 10SM CLR M01/M10 A3014 RMK AO2 T10061102
KLXN 110355Z AUTO 28007KT 10SM CLR 00/M10 A3014 RMK AO2 T10011102
KLXN 110335Z AUTO 30009KT 10SM CLR M01/M10 A3015 RMK AO2 T10091105
KLXN 110315Z AUTO 32009KT 10SM CLR M01/M11 A3015 RMK AO2 T10151106
KLXN 110255Z AUTO 30003KT 10SM CLR M01/M11 A3016 RMK AO2 T10091107
KLXN 110235Z AUTO 33006KT 10SM CLR 00/M11 A3016 RMK AO2 T00021108
KLXN 110215Z AUTO 31007KT 10SM CLR 02/M10 A3016 RMK AO2 T00241105
KLXN 110155Z AUTO 29008KT 10SM CLR 03/M10 A3016 RMK AO2 T00301104
KLXN 110135Z AUTO 28009KT 10SM CLR 05/M11 A3017 RMK AO2 T00451106
KLXN 110115Z AUTO 26010KT 10SM CLR 05/M11 A3017 RMK AO2 T00531106
KLXN 110055Z AUTO 27009KT 10SM CLR 05/M11 A3017 RMK AO2 T00521107
KLXN 110035Z AUTO 27008KT 10SM CLR 06/M11 A3017 RMK AO2 T00571106
KLXN 110015Z AUTO 27010KT 10SM CLR 08/M10 A3018 RMK AO2 T00821105
KLXN 102355Z AUTO 26010KT 10SM CLR 07/M11 A3017 RMK AO2 T00701110 10188 20070
KLXN 102335Z AUTO 26010KT 10SM CLR 09/M11 A3017 RMK AO2 T00861106
KLXN 102315Z AUTO 26009KT 10SM CLR 10/M11 A3018 RMK AO2 T01031106
KLXN 102255Z AUTO 27010KT 10SM CLR 14/M11 A3018 RMK AO2 T01371107
KLXN 102235Z AUTO 28010KT 10SM CLR 15/M11 A3018 RMK AO2 T01541110
KLXN 102215Z AUTO 28012KT 10SM CLR 17/M11 A3018 RMK AO2 T01671108
KLXN 102155Z AUTO 28010KT 10SM CLR 18/M10 A3018 RMK AO2 T01771105
KLXN 102135Z AUTO 28014G17KT 10SM CLR 19/M10 A3019 RMK AO2 T01851105
KLXN 102115Z AUTO 30013KT 10SM CLR 19/M11 A3018 RMK AO2 T01861111
KLXN 102055Z AUTO 28014KT 10SM CLR 18/M11 A3019 RMK AO2 T01831106
KLXN 102035Z AUTO 29013KT 10SM CLR 17/M11 A3019 RMK AO2 T01691114
KLXN 102015Z AUTO 29015KT 10SM CLR 18/M11 A3019 RMK AO2 T01801110
KLXN 101955Z AUTO 29016KT 10SM CLR 18/M11 A3019 RMK AO2 T01821111
KLXN 101935Z AUTO 29016G19KT 10SM CLR 17/M11 A3020 RMK AO2 T01741111
KLXN 101915Z AUTO 29015KT 10SM CLR 17/M11 A3020 RMK AO2 T01661110
KLXN 101855Z AUTO 29013KT 10SM CLR 16/M11 A3021 RMK AO2 T01611108
KLXN 101835Z AUTO 29014KT 10SM CLR 15/M11 A3022 RMK AO2 T01501106
KLXN 101815Z AUTO 30014G17KT 10SM CLR 14/M10 A3023 RMK AO2 T01421103
KLXN 101755Z AUTO 29016KT 10SM CLR 13/M10 A3024 RMK AO2 T01331105 10133 20006
KLXN 101735Z AUTO 30015KT 10SM CLR 12/M10 A3024 RMK AO2 T01241102
KLXN 101715Z AUTO 30016KT 10SM CLR 12/M10 A3024 RMK AO2 T01151102
KLXN 101655Z AUTO 30016KT 10SM CLR 10/M10 A3024 RMK AO2 T01021101
KLXN 101635Z AUTO 30014KT 10SM CLR 09/M10 A3024 RMK AO2 T00851101
KLXN 101615Z AUTO 29019KT 10SM CLR 08/M10 A3024 RMK AO2 T00781102
KLXN 101555Z AUTO 29014KT 10SM CLR 07/M10 A3024 RMK AO2 T00691100
KLXN 101535Z AUTO 29016KT 10SM CLR 06/M10 A3024 RMK AO2 T00551101
KLXN 101515Z AUTO 30013KT 10SM CLR 04/M10 A3023 RMK AO2 T00381102
KLXN 101455Z AUTO 30014KT 10SM CLR 03/M10 A3023 RMK AO2 T00271102
KLXN 101435Z AUTO 30011KT 10SM CLR 02/M10 A3023 RMK AO2 T00211102
KLXN 101415Z AUTO 30010KT 10SM CLR 01/M10 A3022 RMK AO2 T00121103
KLXN 101355Z AUTO 31010KT 10SM CLR 01/M10 A3022 RMK AO2 T00101105
KLXN 101335Z AUTO 31011KT 10SM CLR 02/M11 A3021 RMK AO2 T00181107
KLXN 101315Z AUTO 31014KT 10SM CLR 02/M11 A3021 RMK AO2 T00221106
KLXN 101255Z AUTO 31015KT 10SM CLR 02/M10 A3021 RMK AO2 T00221105
KLXN 101235Z AUTO 30012KT 10SM CLR 01/M10 A3021 RMK AO2 T00091100
KLXN 101215Z AUTO 30012KT 10SM CLR 01/M10 A3020 RMK AO2 T00121100
KLXN 101155Z AUTO 30015KT 10SM CLR 02/M10 A3020 RMK AO2 T00201102 10026 20006
KLXN 101135Z AUTO 30015KT 10SM CLR 02/M10 A3018 RMK AO2 T00181100
KLXN 101115Z AUTO 30012KT 10SM CLR 01/M10 A3018 RMK AO2 T00111098
KLXN 101055Z AUTO 30011KT 10SM CLR 01/M10 A3018 RMK AO2 T00111096
KLXN 101035Z AUTO 30010KT 10SM CLR 01/M09 A3018 RMK AO2 T00061094
KLXN 101015Z AUTO 30011KT 10SM CLR 01/M09 A3018 RMK AO2 T00061094
KLXN 100955Z AUTO 30009KT 10SM CLR 01/M09 A3018 RMK AO2 T00081093
KLXN 100935Z AUTO 30010KT 10SM CLR 01/M09 A3018 RMK AO2 T00101093
KLXN 100915Z AUTO 29011KT 10SM CLR 01/M09 A3018 RMK AO2 T00101094
KLXN 100855Z AUTO 29011KT 10SM CLR 01/M09 A3018 RMK AO2 T00141092
KLXN 100835Z AUTO 30011KT 10SM CLR 02/M09 A3018 RMK AO2 T00211092
KLXN 100815Z AUTO 30012KT 10SM CLR 03/M09 A3017 RMK AO2 T00251090
KLXN 100755Z AUTO 30012KT 10SM CLR 03/M09 A3017 RMK AO2 T00251088
KLXN 100735Z AUTO 31010KT 10SM CLR 02/M09 A3017 RMK AO2 T00231087
KLXN 100715Z AUTO 31008KT 10SM CLR 02/M09 A3016 RMK AO2 T00151089
KLXN 100655Z AUTO 29008KT 10SM CLR 01/M09 A3016 RMK AO2 T00081087
KLXN 100635Z AUTO 30009KT 10SM CLR 03/M09 A3017 RMK AO2 T00251087
KLXN 100615Z AUTO 30009KT 10SM CLR 01/M09 A3017 RMK AO2 T00111089
KLXN 100555Z AUTO 30011KT 10SM CLR 01/M09 A3017 RMK AO2 T00111090 10057 21024 401251025
KLXN 100535Z AUTO 29011KT 10SM CLR 03/M09 A3017 RMK AO2 T00311088
KLXN 100515Z AUTO 30013KT 10SM CLR 03/M08 A3017 RMK AO2 T00311085
KLXN 100455Z AUTO 30011KT 10SM CLR 00/M09 A3017 RMK AO2 T00021091
KLXN 100435Z AUTO 29009KT 10SM CLR M01/M10 A3017 RMK AO2 T10071100
KLXN 100415Z AUTO 29008KT 10SM CLR M01/M10 A3017 RMK AO2 T10121098
KLXN 100355Z AUTO 30006KT 10SM CLR M02/M10 A3017 RMK AO2 T10221101
KLXN 100335Z AUTO 34008KT 10SM CLR M02/M10 A3017 RMK AO2 T10201100
KLXN 100315Z AUTO 33007KT 10SM CLR M02/M10 A3017 RMK AO2 T10191097
KLXN 100255Z AUTO 29006KT 10SM CLR M01/M10 A3016 RMK AO2 T10091100
KLXN 100235Z AUTO 27008KT 10SM CLR 02/M09 A3015 RMK AO2 T00171090
KLXN 100215Z AUTO 27009KT 10SM CLR 02/M09 A3015 RMK AO2 T00211089
KLXN 100155Z AUTO 26008KT 10SM CLR 01/M10 A3015 RMK AO2 T00051100
KLXN 100135Z AUTO 25005KT 10SM CLR 00/M09 A3015 RMK AO2 T00011095